Kevin Rodriguez

Scout - Young Boys
22 Feb 2028
Dienstag
Verarbeitung

Persönlichkeit

Anpassungsfähigkeit (14) Ehrgeiz (5) Kontroverse (6) Loyalität (12) Druck (1) Professionalität (15) Fairness (9) Temperament (11)

Profil

Trainerstil Demokratisch
Lizenz Kontinentale Pro
Entschlossenheit 9
Menschenführung 12
Motivation 14
Disziplin 11
Arbeitszufriedenheit
100%
Ermüdung
0%
Rolle Scout
Gehalt 68.4K p/W
Vertrag 14.03.2029

Leistung

Verhalten Gut
Trainingseffektivität
52%
Spielerentwicklung
25%
Verletzungsprävention
55%
Taktische Umsetzung
70%

Letzte Ereignisse

Nahm an einer Scouting-Besprechung teil jetzt
Nahm an einer Scouting-Besprechung teil jetzt
Nahm an einer Scouting-Besprechung teil 7T her
Nahm an einer Scouting-Besprechung teil 7T her
Empfahl ein Transferziel 7T her
Empfahl ein Transferziel 7T her
Empfahl ein Transferziel 14T her
Empfahl ein Transferziel 14T her

Aktuell beobachtet

124
Spieler Verein Status Fähigkeit Vertrauen Beobachtet Zuletzt beobachtet Letzte Stimme
Pedro Porro Tottenham Aktiv 153 / 154 40% 4 24.01.2028 -
Adam Wharton Crystal Palace Aktiv 161 / 158 40% 6 24.01.2028 -
Amar Dedić Watford Aktiv 148 / 147 40% 1 24.01.2028 -
Christian Krasnodar Aktiv 140 / 129 40% 7 22.01.2028 -
Neco Williams Nottingham Forest Aktiv 147 / 144 40% 2 22.01.2028 -
Conor Bradley Bristol City Aktiv 160 / 157 40% 2 22.01.2028 -
André Wolverhampton Aktiv 149 / 158 40% 1 20.01.2028 -
Amadou Onana Aston Villa Aktiv 160 / 152 40% 1 18.01.2028 -
Igor Jesus Newcastle United Aktiv 144 / 142 40% 1 31.12.2027 -
Brennan Johnson Stoke City Aktiv 151 / 149 40% 1 31.12.2027 -
Dango Ouattara Brentford Aktiv 151 / 151 40% 1 31.12.2027 -
Nikola Vlašić Torino Aktiv 154 / 156 40% 1 17.08.2027 -
Agustín Ruberto River Plate Aktiv 113 / 129 40% 1 17.08.2027 -
Dušan Vlahović Juventus Aktiv 169 / 156 40% 1 17.08.2027 -
Umeh Emmanuel Zurich Aktiv 118 / 127 76% 1 02.06.2027 Befürworten
Franck Surdez Sion Aktiv 113 / 111 76% 1 01.06.2027 Befürworten
Kwadwo Baah Watford Aktiv 128 / 129 40% 4 30.05.2027 -
Callum O'Hare Sheffield United Aktiv 133 / 122 40% 2 30.05.2027 -
Finn Azaz Southampton Aktiv 129 / 130 40% 2 30.05.2027 -
Derry Murkin Derby County Aktiv 127 / 128 40% 6 28.05.2027 -
Ryan Sessegnon Fulham Aktiv 143 / 139 40% 5 28.05.2027 -
Dara O'Shea Ipswich Town Aktiv 139 / 141 40% 5 28.05.2027 -
Callum Doyle Wrexham Aktiv 136 / 138 40% 6 26.05.2027 -
Quinten Timber Crystal Palace Aktiv 147 / 152 40% 5 26.05.2027 -
Florentino Luís Ipswich Town Aktiv 138 / 140 40% 4 25.05.2027 -
Welington Southampton Aktiv 136 / 135 40% 7 25.05.2027 -
Tomáš Rigo Stoke City Aktiv 132 / 130 40% 1 24.05.2027 -
Bosun Lawal Stoke City Aktiv 123 / 123 40% 2 23.05.2027 -
Benjamin White Arsenal Aktiv 160 / 155 40% 1 22.05.2027 -
Kristoffer Lund Birmingham Aktiv 130 / 130 40% 2 21.05.2027 -
Max Bird Birmingham Aktiv 130 / 133 40% 4 21.05.2027 -
Soungoutou Magassa West Ham United Aktiv 131 / 145 40% 2 20.05.2027 -
Kyle Walker-Peters West Ham United Aktiv 138 / 133 40% 3 20.05.2027 -
Edoardo Bove Watford Aktiv 129 / 124 40% 1 19.05.2027 -
Tom Fellows Southampton Aktiv 134 / 127 40% 5 17.05.2027 -
Amine Adli Bournemouth Aktiv 142 / 145 40% 2 17.05.2027 -
Morgan Whittaker Middlesbrough Aktiv 138 / 131 40% 1 17.05.2027 -
Yehor Yarmoliuk Brentford Aktiv 150 / 157 40% 5 15.05.2027 -
Xaver Schlager Nottingham Forest Aktiv 156 / 147 40% 4 15.05.2027 -
Japhet Tanganga Sheffield United Aktiv 128 / 136 40% 1 15.05.2027 -
Harry Clarke Preston Aktiv 131 / 128 40% 5 13.05.2027 -
Nordi Mukiele Sunderland Aktiv 145 / 147 40% 6 13.05.2027 -
Jack McGlynn Stoke City Aktiv 132 / 137 40% 3 13.05.2027 -
Shea Charles Southampton Aktiv 133 / 139 40% 2 11.05.2027 -
Ethan Williams Peterborough United Aktiv 111 / 119 40% 1 05.05.2027 -
Anton Stach Leeds United Aktiv 144 / 147 40% 7 04.05.2027 -
Adrien Truffert Bournemouth Aktiv 155 / 149 40% 6 03.05.2027 -
Marcus Edwards Burnley Aktiv 138 / 143 40% 3 03.05.2027 -
Riley McGree Middlesbrough Aktiv 130 / 133 40% 4 02.05.2027 -
Léo Scienza Southampton Aktiv 136 / 135 40% 6 01.05.2027 -
Luís Henrique Inter Aktiv 147 / 135 40% 2 29.04.2027 -
Igor Burnley Aktiv 140 / 137 40% 5 27.04.2027 -
Saša Lukić Ipswich Town Aktiv 142 / 133 40% 3 25.04.2027 -
Paik Seung-Ho Birmingham Aktiv 127 / 122 40% 1 25.04.2027 -
Kasey McAteer Ipswich Town Aktiv 133 / 130 40% 2 20.04.2027 -
Juanlu Bournemouth Aktiv 149 / 142 40% 1 20.04.2027 -
Callum Brittain Middlesbrough Aktiv 126 / 123 40% 2 17.04.2027 -
James Garner Everton Aktiv 150 / 142 40% 3 15.04.2027 -
David Brooks Bournemouth Aktiv 144 / 143 40% 4 15.04.2027 -
Ethan Galbraith Swansea City Aktiv 131 / 130 40% 4 12.04.2027 -
Jacques Ekomié Wrexham Aktiv 132 / 137 40% 1 10.04.2027 -
Sorba Thomas Stoke City Aktiv 135 / 123 40% 1 08.04.2027 -
Cyriaque Irié VfL Wolfsburg Aktiv 117 / 127 40% 1 08.04.2027 -
Milan van Ewijk Mansfield Town Aktiv 135 / 135 40% 3 05.04.2027 -
Harry Wilson Leeds United Aktiv 149 / 136 40% 4 03.04.2027 -
Noah Sadiki Sunderland Aktiv 139 / 146 40% 1 03.04.2027 -
Alessandro Buongiorno Sassuolo Aktiv 156 / 149 40% 2 21.03.2027 -
Malick Thiaw West Ham United Aktiv 155 / 157 40% 1 17.03.2027 -
Daniel Muñoz Nottingham Forest Aktiv 150 / 144 40% 1 17.03.2027 -
Othmane Maamma Watford Aktiv 120 / 127 40% 2 16.03.2027 -
Marquinhos Spartak Moscow Aktiv 126 / 128 40% 1 13.03.2027 -
Giacomo Raspadori Atalanta Aktiv 145 / 151 40% 2 11.03.2027 -
Lewis Ferguson Bologna Aktiv 147 / 143 40% 1 11.03.2027 -
Georginio Rutter Brighton Aktiv 143 / 142 40% 3 08.03.2027 -
Tino Livramento Newcastle United Aktiv 160 / 159 40% 1 08.03.2027 -
Aaron Hickey Brentford Aktiv 140 / 152 40% 2 07.03.2027 -
Toby Collyer West Bromwich Albion Aktiv 129 / 126 40% 1 07.03.2027 -
Aidan Morris Middlesbrough Aktiv 126 / 131 40% 1 03.03.2027 -
Nathan Collins Brentford Aktiv 151 / 146 40% 3 02.03.2027 -
Marcelo Allende Mamelodi Sundowns Aktiv 125 / 145 40% 1 25.02.2027 -
Takehiro Tomiyasu Crystal Palace Aktiv 140 / 136 40% 1 16.02.2027 -
Carlos Vicente Birmingham Aktiv 138 / 147 40% 1 11.02.2027 -
Mikkel Damsgaard Brentford Aktiv 143 / 155 40% 1 06.02.2027 -
Tyler Adams Bournemouth Aktiv 153 / 142 40% 1 05.02.2027 -
Zian Flemming Ipswich Town Aktiv 131 / 129 40% 1 04.02.2027 -
Mats Wieffer Brighton Aktiv 149 / 145 40% 4 31.12.2026 -
Jordan Beyer Burnley Aktiv 132 / 134 40% 1 29.12.2026 -
Ibrahim Sangaré Nottingham Forest Aktiv 145 / 138 40% 1 21.12.2026 -
Ainsley Maitland-Niles Everton Aktiv 140 / 148 40% 2 17.12.2026 -
Curtis Jones Inter Aktiv 152 / 157 40% 2 03.12.2026 -
Fikayo Tomori AC Milan Aktiv 155 / 143 40% 1 27.11.2026 -
Nadir Zortea Bologna Aktiv 137 / 131 40% 1 27.11.2026 -
Jon Gorenc Stankovič Sturm Graz Aktiv 136 / 120 40% 5 25.11.2026 -
Nuno Tavares Lazio Aktiv 147 / 141 40% 1 24.11.2026 -
Rubens Dinamo Moscow Aktiv 138 / 142 40% 1 24.11.2026 -
Fabián Paris Saint-Germain Aktiv 163 / 167 40% 1 24.11.2026 -
Dan-Axel Zagadou VfB Stuttgart Aktiv 136 / 125 40% 5 23.11.2026 -
Patrick Berg Bodo/Glimt Aktiv 147 / 135 40% 3 23.11.2026 -
Rogério VfL Wolfsburg Aktiv 131 / 124 40% 1 23.11.2026 -
Yves Bissouma Tottenham Aktiv 144 / 134 40% 1 20.11.2026 -
Lukáš Červ Viktoria Plzen Aktiv 141 / 124 40% 1 09.11.2026 -
Aníbal Moreno River Plate Aktiv 122 / 115 40% 1 09.11.2026 -
Emanuel Mammana Vélez Aktiv 132 / 130 40% 1 05.11.2026 -
Sergi Palencia Los Angeles Football Club Aktiv 125 / 122 40% 1 02.11.2026 -
Ayrton Costa Boca Juniors Aktiv 127 / 136 40% 1 31.10.2026 -
Dominik Schmid Red Bull Salzburg Aktiv 128 / 123 40% 1 31.10.2026 -
Sergio Reguilón Inter Miami CF Aktiv 127 / 141 40% 2 27.10.2026 -
Rodrigo Huescas FC Copenhagen Aktiv 133 / 122 40% 2 27.10.2026 -
Rúben Neves Al-Hilal Aktiv 149 / 145 40% 2 26.10.2026 -
Conrad Wallem Austria Wien Aktiv 132 / 139 40% 1 25.10.2026 -
Wendel Zenit Aktiv 147 / 135 40% 1 20.10.2026 -
Karel Spáčil Viktoria Plzen Aktiv 131 / 124 40% 1 20.10.2026 -
Miles Robinson FC Cincinnati Aktiv 132 / 128 40% 3 19.10.2026 -
David Brekalo Orlando City Aktiv 130 / 123 40% 3 15.10.2026 -
Bryan Ramírez FC Cincinnati Aktiv 122 / 145 40% 2 14.10.2026 -
Mattia Zanotti Lugano Aktiv 135 / 127 40% 2 14.10.2026 Mehr Infos nötig
Marcel Hartel St. Louis CITY SC Aktiv 131 / 119 40% 2 13.10.2026 -
Dejan Radonjić SV Ried Aktiv 113 / 117 40% 1 06.10.2026 -
Fredrik Bjørkan Bodo/Glimt Aktiv 134 / 126 40% 1 06.10.2026 -
Anton Salétros Chicago Fire Aktiv 128 / 115 40% 1 17.09.2026 -
Eduard Löwen San Jose Earthquakes Aktiv 140 / 148 40% 1 14.09.2026 -
Furkan Demir Rapid Wien Aktiv 120 / 123 40% 1 10.09.2026 -
Soumaïla Diabaté Red Bull Salzburg Aktiv 112 / 105 40% 1 10.09.2026 -
Philip Billing FC Midtjylland Aktiv 128 / 143 40% 1 08.09.2026 -